Time;durP1;ratioP1;P1;durP2;ratioP2;P2;SDS_P1;SDS_P2;PMS_P1;PMS_P2;Temp;Humidity;BMP_temperature;BMP_pressure;BME280_temperature;BME280_humidity;BME280_pressure;Samples;Min_cycle;Max_cycle;Signal;HPM_P1;HPM_P2
2022/03/09 00:01:49;;;;;;;35.83;18.20;;;;;;;;;;5078197;28;20131;-70
2022/03/09 00:04:15;;;;;;;35.15;19.38;;;;;;;;;;5077717;28;20455;-70
2022/03/09 00:06:41;;;;;;;37.55;20.45;;;;;;;;;;5092391;28;20492;-70
2022/03/09 00:09:10;;;;;;;36.50;19.83;;;;;;;;;;5093955;28;20032;-70
2022/03/09 00:11:36;;;;;;;33.97;19.15;;;;;;;;;;5087417;28;20160;-70
2022/03/09 00:14:02;;;;;;;36.38;19.13;;;;;;;;;;5099117;28;20063;-69
2022/03/09 00:16:28;;;;;;;32.90;18.45;;;;;;;;;;5094977;28;20020;-70
2022/03/09 00:18:54;;;;;;;32.03;17.80;;;;;;;;;;5091673;28;20062;-69
2022/03/09 00:21:20;;;;;;;34.00;18.83;;;;;;;;;;5090760;28;20048;-69
2022/03/09 00:23:46;;;;;;;34.30;19.23;;;;;;;;;;5093435;28;20036;-69
2022/03/09 00:26:12;;;;;;;30.17;17.40;;;;;;;;;;5093669;28;20043;-70
2022/03/09 00:28:38;;;;;;;35.55;18.27;;;;;;;;;;5095880;28;20051;-70
2022/03/09 00:31:04;;;;;;;35.72;18.27;;;;;;;;;;5110298;28;20030;-69
2022/03/09 00:33:30;;;;;;;34.33;19.67;;;;;;;;;;5094872;28;20334;-69
2022/03/09 00:35:56;;;;;;;33.22;19.52;;;;;;;;;;5107900;28;20023;-69
2022/03/09 00:38:23;;;;;;;30.95;17.35;;;;;;;;;;5099940;28;20038;-69
2022/03/09 00:40:50;;;;;;;33.40;18.08;;;;;;;;;;5081683;28;20074;-69
2022/03/09 00:43:16;;;;;;;33.33;18.95;;;;;;;;;;5098700;28;20032;-69
2022/03/09 00:45:42;;;;;;;34.50;18.50;;;;;;;;;;5096240;28;20036;-69
2022/03/09 00:48:08;;;;;;;31.90;18.40;;;;;;;;;;5097501;28;20451;-69
2022/03/09 00:50:34;;;;;;;35.30;19.65;;;;;;;;;;5099068;28;20106;-70
2022/03/09 00:53:00;;;;;;;35.60;20.00;;;;;;;;;;5099098;28;20042;-70
2022/03/09 00:55:26;;;;;;;34.67;19.15;;;;;;;;;;5098872;28;20028;-70
2022/03/09 00:57:52;;;;;;;34.03;18.27;;;;;;;;;;5097172;28;20492;-70
2022/03/09 01:00:18;;;;;;;35.20;18.73;;;;;;;;;;5096683;28;20020;-69
2022/03/09 01:02:45;;;;;;;30.90;18.30;;;;;;;;;;5080124;28;20101;-70
2022/03/09 01:05:12;;;;;;;33.03;18.90;;;;;;;;;;5098629;28;20032;-69
2022/03/09 01:07:38;;;;;;;34.25;17.70;;;;;;;;;;5098940;28;20084;-70
2022/03/09 01:10:04;;;;;;;32.92;18.30;;;;;;;;;;5080982;28;20027;-71
2022/03/09 01:12:30;;;;;;;33.30;18.52;;;;;;;;;;5094591;28;20556;-69
2022/03/09 01:14:56;;;;;;;30.90;17.70;;;;;;;;;;5077976;28;20115;-70
2022/03/09 01:17:22;;;;;;;33.83;18.48;;;;;;;;;;5098990;28;20107;-69
2022/03/09 01:19:48;;;;;;;40.63;19.42;;;;;;;;;;5098704;28;20442;-70
2022/03/09 01:22:14;;;;;;;36.33;19.88;;;;;;;;;;5080973;28;20092;-69
2022/03/09 01:24:40;;;;;;;35.90;18.95;;;;;;;;;;5094908;28;20035;-70
2022/03/09 01:27:06;;;;;;;32.63;18.48;;;;;;;;;;5096376;28;20492;-70
2022/03/09 01:29:32;;;;;;;36.05;19.52;;;;;;;;;;5098848;28;20048;-70
2022/03/09 01:31:58;;;;;;;37.00;19.05;;;;;;;;;;5098346;28;20046;-70
2022/03/09 01:34:24;;;;;;;33.15;18.00;;;;;;;;;;5098167;28;20058;-70
2022/03/09 01:36:50;;;;;;;33.30;17.90;;;;;;;;;;5107595;28;20059;-70
2022/03/09 01:39:16;;;;;;;35.47;18.02;;;;;;;;;;5104414;28;20038;-70
2022/03/09 01:41:42;;;;;;;34.28;18.08;;;;;;;;;;5096667;28;20451;-70
2022/03/09 01:44:13;;;;;;;36.25;19.52;;;;;;;;;;5097994;28;20028;-70
2022/03/09 01:46:39;;;;;;;35.05;18.70;;;;;;;;;;5098353;28;20035;-69
2022/03/09 01:49:06;;;;;;;33.28;18.80;;;;;;;;;;5079696;28;20028;-70
2022/03/09 01:51:32;;;;;;;33.70;18.45;;;;;;;;;;5093914;28;20027;-69
2022/03/09 01:53:59;;;;;;;32.45;17.52;;;;;;;;;;5097344;28;20036;-70
2022/03/09 01:56:25;;;;;;;34.20;18.50;;;;;;;;;;5097884;28;20531;-70
2022/03/09 01:58:51;;;;;;;38.03;19.08;;;;;;;;;;5098102;28;20031;-69
2022/03/09 02:01:17;;;;;;;36.70;19.63;;;;;;;;;;5097610;28;20035;-69
2022/03/09 02:03:43;;;;;;;33.25;17.88;;;;;;;;;;5076577;28;20118;-70
2022/03/09 02:06:10;;;;;;;32.05;18.08;;;;;;;;;;5095583;28;20031;-70
2022/03/09 02:11:21;;;;;;;32.85;17.60;;;;;;;;;;5099050;28;20089;-69
2022/03/09 02:13:47;;;;;;;32.22;17.33;;;;;;;;;;5097712;28;20533;-69
2022/03/09 02:16:14;;;;;;;33.10;17.38;;;;;;;;;;5097118;28;20106;-69
2022/03/09 02:18:40;;;;;;;34.35;17.08;;;;;;;;;;5093149;28;20057;-70
2022/03/09 02:21:07;;;;;;;32.95;17.50;;;;;;;;;;5089842;28;20024;-69
2022/03/09 02:23:33;;;;;;;33.40;18.00;;;;;;;;;;5079747;28;20036;-69
2022/03/09 02:25:59;;;;;;;30.08;17.23;;;;;;;;;;5097139;28;20500;-69
2022/03/09 02:28:25;;;;;;;31.10;16.20;;;;;;;;;;5096987;28;20140;-69
2022/03/09 02:30:55;;;;;;;32.65;17.50;;;;;;;;;;5077289;28;20031;-70
2022/03/09 02:33:21;;;;;;;31.05;16.95;;;;;;;;;;5094315;28;20028;-70
2022/03/09 02:35:47;;;;;;;33.50;17.25;;;;;;;;;;5105322;28;20073;-69
2022/03/09 02:38:13;;;;;;;34.72;17.88;;;;;;;;;;5099579;28;20115;-69
2022/03/09 02:40:40;;;;;;;37.03;19.02;;;;;;;;;;5096405;28;20024;-70
2022/03/09 02:43:05;;;;;;;32.42;17.10;;;;;;;;;;5097082;28;20031;-69
2022/03/09 02:45:32;;;;;;;35.58;18.20;;;;;;;;;;5092718;28;20019;-70
2022/03/09 02:47:57;;;;;;;35.53;17.35;;;;;;;;;;5096454;28;20028;-69
2022/03/09 02:50:24;;;;;;;35.80;18.85;;;;;;;;;;5096280;28;20036;-69
2022/03/09 02:52:49;;;;;;;31.30;16.75;;;;;;;;;;5096820;28;20106;-69
2022/03/09 02:55:16;;;;;;;33.58;17.80;;;;;;;;;;5096711;28;20114;-70
2022/03/09 02:57:42;;;;;;;33.67;16.45;;;;;;;;;;5093611;28;20035;-69
2022/03/09 03:00:09;;;;;;;31.17;16.92;;;;;;;;;;5076912;28;20374;-70
2022/03/09 03:02:35;;;;;;;28.95;16.08;;;;;;;;;;5078426;28;20035;-69
2022/03/09 03:05:01;;;;;;;28.67;15.75;;;;;;;;;;5099651;28;20077;-69
2022/03/09 03:07:29;;;;;;;30.02;16.23;;;;;;;;;;5105322;28;20481;-69
2022/03/09 03:09:55;;;;;;;34.92;18.27;;;;;;;;;;5076848;28;20145;-69
2022/03/09 03:12:21;;;;;;;31.80;16.98;;;;;;;;;;5093730;28;20020;-69
2022/03/09 03:14:47;;;;;;;36.13;17.10;;;;;;;;;;5077704;28;20527;-69
2022/03/09 03:17:13;;;;;;;32.35;17.27;;;;;;;;;;5096070;28;20032;-69
2022/03/09 03:19:39;;;;;;;32.17;16.83;;;;;;;;;;5096541;28;20469;-69
2022/03/09 03:22:05;;;;;;;34.85;17.58;;;;;;;;;;5096111;28;20082;-69
2022/03/09 03:24:32;;;;;;;33.03;16.50;;;;;;;;;;5091882;28;20554;-69
2022/03/09 03:26:58;;;;;;;32.13;17.23;;;;;;;;;;5077765;28;20460;-69
2022/03/09 03:29:24;;;;;;;33.63;17.77;;;;;;;;;;5096235;28;20083;-69
2022/03/09 03:31:50;;;;;;;32.78;17.15;;;;;;;;;;5096057;28;20118;-69
2022/03/09 03:34:16;;;;;;;32.72;17.67;;;;;;;;;;5094318;28;20043;-69
2022/03/09 03:36:42;;;;;;;32.35;17.45;;;;;;;;;;5107688;28;20559;-70
2022/03/09 03:39:08;;;;;;;37.05;18.33;;;;;;;;;;5094778;28;20052;-69
2022/03/09 03:41:34;;;;;;;33.10;17.90;;;;;;;;;;5096622;28;20651;-69
2022/03/09 03:44:01;;;;;;;33.53;16.05;;;;;;;;;;5074773;28;20032;-69
2022/03/09 03:46:27;;;;;;;32.90;16.08;;;;;;;;;;5095714;28;20117;-69
2022/03/09 03:48:53;;;;;;;32.40;17.00;;;;;;;;;;5094119;28;20055;-69
2022/03/09 03:51:20;;;;;;;30.17;15.90;;;;;;;;;;5093458;28;20392;-69
2022/03/09 03:53:45;;;;;;;32.35;15.68;;;;;;;;;;5076983;28;20027;-69
2022/03/09 03:56:11;;;;;;;33.50;17.60;;;;;;;;;;5077834;28;20483;-69
2022/03/09 03:58:37;;;;;;;27.88;15.23;;;;;;;;;;5095746;28;20028;-69
2022/03/09 04:01:03;;;;;;;29.65;16.25;;;;;;;;;;5095604;28;20023;-68
2022/03/09 04:03:29;;;;;;;30.75;15.75;;;;;;;;;;5092345;28;20101;-69
2022/03/09 04:05:55;;;;;;;29.15;15.80;;;;;;;;;;5098712;28;20031;-69
2022/03/09 04:08:21;;;;;;;28.25;15.00;;;;;;;;;;5099892;28;20503;-68
2022/03/09 04:10:48;;;;;;;33.10;16.35;;;;;;;;;;5100286;28;20111;-69
2022/03/09 04:13:13;;;;;;;31.15;15.25;;;;;;;;;;5099846;28;20062;-65
2022/03/09 04:15:39;;;;;;;30.35;15.98;;;;;;;;;;5095662;28;20047;-65
2022/03/09 04:18:06;;;;;;;33.72;16.48;;;;;;;;;;5098563;28;20032;-67
2022/03/09 04:20:32;;;;;;;29.67;16.02;;;;;;;;;;5089283;28;20392;-66
2022/03/09 04:22:58;;;;;;;33.90;16.63;;;;;;;;;;5104179;28;20051;-67
2022/03/09 04:25:26;;;;;;;34.38;17.27;;;;;;;;;;5099256;28;20020;-66
2022/03/09 04:27:52;;;;;;;29.52;16.25;;;;;;;;;;5097274;28;20066;-67
2022/03/09 04:30:18;;;;;;;33.15;17.65;;;;;;;;;;5097099;28;20102;-66
2022/03/09 04:32:44;;;;;;;36.67;17.45;;;;;;;;;;5099393;28;20039;-66
2022/03/09 04:35:10;;;;;;;38.13;17.98;;;;;;;;;;5102678;28;20101;-66
2022/03/09 04:37:37;;;;;;;31.63;16.13;;;;;;;;;;5107014;28;20028;-65
2022/03/09 04:40:04;;;;;;;31.70;16.75;;;;;;;;;;5081430;28;20024;-66
2022/03/09 04:42:30;;;;;;;28.83;15.38;;;;;;;;;;5095229;28;20040;-66
2022/03/09 04:44:56;;;;;;;33.50;17.35;;;;;;;;;;5098141;28;20137;-66
2022/03/09 04:47:22;;;;;;;33.47;16.23;;;;;;;;;;5099435;28;20076;-66
2022/03/09 04:49:51;;;;;;;31.42;16.80;;;;;;;;;;5099447;28;20097;-65
2022/03/09 04:52:17;;;;;;;34.40;18.08;;;;;;;;;;5099422;28;20016;-64
2022/03/09 04:54:43;;;;;;;31.48;16.38;;;;;;;;;;5095708;28;20024;-66
2022/03/09 04:57:09;;;;;;;33.90;16.88;;;;;;;;;;5096603;28;20419;-64
2022/03/09 04:59:35;;;;;;;32.00;17.60;;;;;;;;;;5099171;28;20106;-66
2022/03/09 05:02:01;;;;;;;33.15;16.17;;;;;;;;;;5099131;28;20046;-66
2022/03/09 05:04:27;;;;;;;27.35;16.08;;;;;;;;;;5099075;28;20481;-67
2022/03/09 05:06:53;;;;;;;32.58;15.82;;;;;;;;;;5079259;28;20020;-66
2022/03/09 05:09:19;;;;;;;30.52;15.48;;;;;;;;;;5096384;28;20082;-65
2022/03/09 05:11:45;;;;;;;30.10;15.45;;;;;;;;;;5097833;28;20040;-66
2022/03/09 05:14:11;;;;;;;28.98;14.20;;;;;;;;;;5098520;28;20028;-66
2022/03/09 05:16:37;;;;;;;36.08;16.10;;;;;;;;;;5098743;28;20035;-66
2022/03/09 05:19:03;;;;;;;27.52;14.55;;;;;;;;;;5098244;28;20068;-66
2022/03/09 05:21:29;;;;;;;30.95;15.82;;;;;;;;;;5094560;28;20024;-66
2022/03/09 05:23:55;;;;;;;27.85;14.65;;;;;;;;;;5097909;28;20032;-66
2022/03/09 05:26:21;;;;;;;28.75;15.95;;;;;;;;;;5098703;28;20025;-65
2022/03/09 05:28:47;;;;;;;26.77;14.45;;;;;;;;;;5098168;28;20056;-65
2022/03/09 05:31:13;;;;;;;24.05;13.75;;;;;;;;;;5098079;28;20028;-65
2022/03/09 05:33:40;;;;;;;26.65;15.18;;;;;;;;;;5094812;28;20075;-65
2022/03/09 05:36:06;;;;;;;29.38;15.85;;;;;;;;;;5107919;28;20461;-65
2022/03/09 05:38:32;;;;;;;28.90;15.90;;;;;;;;;;5080341;28;20032;-65
2022/03/09 05:40:58;;;;;;;28.92;15.07;;;;;;;;;;5097942;28;20059;-65
2022/03/09 05:43:24;;;;;;;31.38;16.10;;;;;;;;;;5098215;28;20035;-65
2022/03/09 05:45:50;;;;;;;28.15;14.48;;;;;;;;;;5095050;28;20028;-65
2022/03/09 05:48:16;;;;;;;30.45;15.95;;;;;;;;;;5095624;28;20032;-65
2022/03/09 05:50:42;;;;;;;31.52;15.05;;;;;;;;;;5097676;28;20475;-65
2022/03/09 05:53:08;;;;;;;28.63;14.93;;;;;;;;;;5098135;28;20039;-65
2022/03/09 05:55:34;;;;;;;26.50;14.07;;;;;;;;;;5097765;28;20021;-65
2022/03/09 05:58:00;;;;;;;29.42;15.40;;;;;;;;;;5096938;28;20028;-65
2022/03/09 06:00:26;;;;;;;30.65;15.13;;;;;;;;;;5094076;28;20393;-64
2022/03/09 06:02:52;;;;;;;26.42;14.05;;;;;;;;;;5096958;28;20059;-71
2022/03/09 06:05:18;;;;;;;28.50;15.02;;;;;;;;;;5097846;28;20028;-71
2022/03/09 06:07:44;;;;;;;28.40;14.23;;;;;;;;;;5097474;28;20032;-71
2022/03/09 06:10:10;;;;;;;29.30;15.57;;;;;;;;;;5097438;28;20024;-71
2022/03/09 06:12:36;;;;;;;30.27;14.23;;;;;;;;;;5093335;28;20032;-70
2022/03/09 06:15:02;;;;;;;31.65;14.95;;;;;;;;;;5108564;28;20464;-70
2022/03/09 06:17:28;;;;;;;30.50;16.05;;;;;;;;;;5098113;28;20029;-70
2022/03/09 06:19:54;;;;;;;29.15;14.35;;;;;;;;;;5107866;27;20038;-70
2022/03/09 06:22:20;;;;;;;30.00;14.40;;;;;;;;;;5107014;28;20038;-71
2022/03/09 06:24:46;;;;;;;28.92;15.05;;;;;;;;;;5094211;28;20556;-70
2022/03/09 06:27:12;;;;;;;29.90;14.25;;;;;;;;;;5109750;28;20085;-71
2022/03/09 06:29:38;;;;;;;26.90;15.32;;;;;;;;;;5109797;28;20059;-71
2022/03/09 06:32:04;;;;;;;25.92;13.98;;;;;;;;;;5108841;28;20027;-72
2022/03/09 06:34:30;;;;;;;26.48;14.20;;;;;;;;;;5108439;28;20027;-71
2022/03/09 06:36:56;;;;;;;25.02;13.73;;;;;;;;;;5109564;27;20096;-71
2022/03/09 06:39:25;;;;;;;25.75;13.10;;;;;;;;;;5109359;28;20088;-70
2022/03/09 06:41:51;;;;;;;;;;;;;;;;;;5097773;28;20028;-70
2022/03/09 06:44:17;;;;;;;19.27;10.90;;;;;;;;;;5097225;28;19915;-71
2022/03/09 06:46:43;;;;;;;24.42;11.98;;;;;;;;;;5106754;28;20028;-71
2022/03/09 06:49:09;;;;;;;22.63;12.35;;;;;;;;;;5090064;28;20043;-71
2022/03/09 06:51:35;;;;;;;26.20;13.38;;;;;;;;;;5092385;28;20031;-70
2022/03/09 06:54:01;;;;;;;29.17;14.82;;;;;;;;;;5107235;28;20026;-71
2022/03/09 06:56:27;;;;;;;23.75;12.38;;;;;;;;;;5097675;28;20032;-71
2022/03/09 06:58:53;;;;;;;28.67;13.35;;;;;;;;;;5097309;28;20032;-72
2022/03/09 07:01:19;;;;;;;25.20;14.00;;;;;;;;;;5097764;28;20027;-71
2022/03/09 07:03:45;;;;;;;24.02;13.65;;;;;;;;;;5075526;28;20487;-70
2022/03/09 07:06:12;;;;;;;21.70;13.18;;;;;;;;;;5097994;28;20024;-71
2022/03/09 07:08:38;;;;;;;26.02;15.43;;;;;;;;;;5106417;28;20035;-71
2022/03/09 07:11:04;;;;;;;23.27;13.20;;;;;;;;;;5100413;28;20085;-71
2022/03/09 07:13:30;;;;;;;24.17;14.52;;;;;;;;;;5096672;28;20389;-71
2022/03/09 07:15:56;;;;;;;22.38;14.82;;;;;;;;;;5076972;28;20118;-71
2022/03/09 07:18:22;;;;;;;22.67;14.80;;;;;;;;;;5093249;28;20545;-71
2022/03/09 07:20:48;;;;;;;21.35;13.88;;;;;;;;;;5077498;28;20028;-71
2022/03/09 07:23:14;;;;;;;20.35;12.73;;;;;;;;;;5096251;28;20491;-71
2022/03/09 07:25:40;;;;;;;20.25;13.05;;;;;;;;;;5096462;28;20020;-70
2022/03/09 07:28:07;;;;;;;22.67;13.43;;;;;;;;;;5095952;28;20042;-69
2022/03/09 07:30:33;;;;;;;22.73;14.43;;;;;;;;;;5091854;28;20078;-70
2022/03/09 07:32:59;;;;;;;27.20;17.38;;;;;;;;;;5095990;28;20232;-70
2022/03/09 07:35:25;;;;;;;27.10;17.17;;;;;;;;;;5101808;28;20099;-71
2022/03/09 07:37:51;;;;;;;30.10;18.80;;;;;;;;;;5100883;28;20020;-69
2022/03/09 07:40:17;;;;;;;26.52;18.52;;;;;;;;;;5095373;28;20019;-70
2022/03/09 07:42:43;;;;;;;28.27;19.02;;;;;;;;;;5093023;28;20475;-71
2022/03/09 07:45:10;;;;;;;26.85;17.77;;;;;;;;;;5094254;28;20024;-69
2022/03/09 07:47:36;;;;;;;26.00;17.25;;;;;;;;;;5096600;28;20028;-69
2022/03/09 07:50:03;;;;;;;23.13;16.35;;;;;;;;;;5095579;28;20548;-69
2022/03/09 07:52:29;;;;;;;23.50;16.38;;;;;;;;;;5095623;28;20017;-69
2022/03/09 07:54:55;;;;;;;22.73;15.77;;;;;;;;;;5076887;28;20020;-70
2022/03/09 07:57:21;;;;;;;21.67;15.32;;;;;;;;;;5075146;28;20128;-69
2022/03/09 07:59:47;;;;;;;20.75;15.18;;;;;;;;;;5095577;28;20127;-70
2022/03/09 08:02:13;;;;;;;20.25;14.48;;;;;;;;;;5095355;28;20032;-70
2022/03/09 08:04:39;;;;;;;19.35;14.95;;;;;;;;;;5095735;28;20389;-70
2022/03/09 08:07:05;;;;;;;20.30;14.18;;;;;;;;;;5093791;28;20026;-70
2022/03/09 08:09:31;;;;;;;20.95;15.90;;;;;;;;;;5089887;28;20131;-70
2022/03/09 08:11:57;;;;;;;18.60;13.90;;;;;;;;;;5077260;28;20034;-70
2022/03/09 08:14:23;;;;;;;18.45;13.88;;;;;;;;;;5095765;28;20016;-70
2022/03/09 08:16:50;;;;;;;18.13;13.20;;;;;;;;;;5078095;28;20031;-71
2022/03/09 08:19:16;;;;;;;15.93;11.95;;;;;;;;;;5095724;28;20515;-70
2022/03/09 08:21:42;;;;;;;16.00;11.70;;;;;;;;;;5091925;28;20032;-71
2022/03/09 08:24:08;;;;;;;13.63;10.18;;;;;;;;;;5093608;28;20047;-71
2022/03/09 08:26:34;;;;;;;14.75;11.07;;;;;;;;;;5077919;28;20047;-72
2022/03/09 08:29:00;;;;;;;14.88;11.02;;;;;;;;;;5077664;28;20128;-70
2022/03/09 08:31:27;;;;;;;14.55;11.18;;;;;;;;;;5095584;28;20027;-70
2022/03/09 08:33:55;;;;;;;15.13;10.90;;;;;;;;;;5093348;28;20607;-71
2022/03/09 08:36:21;;;;;;;;;;;;;;;;;;5104532;28;20052;-71
2022/03/09 08:38:47;;;;;;;17.42;11.48;;;;;;;;;;5094799;28;19990;-72
2022/03/09 08:41:13;;;;;;;16.58;11.82;;;;;;;;;;5095471;28;20459;-72
2022/03/09 08:43:39;;;;;;;16.77;11.80;;;;;;;;;;5099862;28;20039;-72
2022/03/09 08:46:05;;;;;;;17.27;12.35;;;;;;;;;;5106813;28;20465;-73
2022/03/09 08:48:31;;;;;;;16.85;12.25;;;;;;;;;;5089360;28;20028;-73
2022/03/09 08:50:57;;;;;;;17.15;12.70;;;;;;;;;;5096986;28;20028;-72
2022/03/09 08:53:23;;;;;;;17.70;12.80;;;;;;;;;;5081660;28;20024;-72
2022/03/09 08:55:49;;;;;;;17.85;12.93;;;;;;;;;;5099285;28;20078;-72
2022/03/09 08:58:16;;;;;;;17.70;11.73;;;;;;;;;;5099312;28;20024;-72
2022/03/09 09:00:42;;;;;;;15.40;10.80;;;;;;;;;;5095301;28;20028;-72
2022/03/09 09:03:09;;;;;;;16.02;11.07;;;;;;;;;;5096803;28;20039;-72
2022/03/09 09:05:35;;;;;;;16.48;10.88;;;;;;;;;;5099368;28;20190;-72
2022/03/09 09:08:01;;;;;;;16.95;10.85;;;;;;;;;;5099018;28;20131;-73
2022/03/09 09:10:27;;;;;;;15.88;10.38;;;;;;;;;;5097502;28;20023;-73
2022/03/09 09:12:54;;;;;;;14.40;9.45;;;;;;;;;;5095088;28;20484;-73
2022/03/09 09:15:22;;;;;;;17.38;9.00;;;;;;;;;;5094775;28;20031;-74
2022/03/09 09:17:48;;;;;;;16.35;9.80;;;;;;;;;;5077704;28;20031;-74
2022/03/09 09:20:14;;;;;;;15.70;9.80;;;;;;;;;;5096785;28;20516;-72
2022/03/09 09:22:42;;;;;;;15.73;9.07;;;;;;;;;;5096672;28;20543;-72
2022/03/09 09:25:09;;;;;;;17.33;9.07;;;;;;;;;;5096831;28;20547;-71
2022/03/09 09:27:35;;;;;;;13.95;8.38;;;;;;;;;;5094279;28;20068;-72
2022/03/09 09:30:01;;;;;;;12.77;8.25;;;;;;;;;;5107575;28;20051;-71
2022/03/09 09:32:27;;;;;;;13.80;8.75;;;;;;;;;;5096609;28;20078;-72
2022/03/09 09:34:53;;;;;;;17.63;8.90;;;;;;;;;;5079946;28;20501;-72
2022/03/09 09:37:19;;;;;;;14.45;8.65;;;;;;;;;;5091315;28;20020;-71
2022/03/09 09:39:45;;;;;;;14.80;8.68;;;;;;;;;;5093281;28;20031;-72
2022/03/09 09:42:12;;;;;;;12.57;7.85;;;;;;;;;;5108373;28;20484;-71
2022/03/09 09:44:42;;;;;;;14.20;7.88;;;;;;;;;;5097585;28;20035;-72
2022/03/09 09:47:13;;;;;;;13.15;7.95;;;;;;;;;;5098100;28;20028;-71
2022/03/09 09:49:39;;;;;;;13.40;7.95;;;;;;;;;;5098293;28;20069;-71
2022/03/09 09:52:06;;;;;;;13.70;8.07;;;;;;;;;;5097434;28;20094;-71
2022/03/09 09:54:32;;;;;;;15.18;8.68;;;;;;;;;;5093603;28;20071;-71
2022/03/09 09:56:58;;;;;;;14.35;8.32;;;;;;;;;;5097721;28;20027;-72
2022/03/09 09:59:24;;;;;;;12.65;7.65;;;;;;;;;;5098009;28;20107;-72
2022/03/09 10:01:50;;;;;;;12.95;7.25;;;;;;;;;;5078895;28;20028;-72
2022/03/09 10:04:16;;;;;;;13.75;8.48;;;;;;;;;;5079306;28;20525;-71
2022/03/09 10:06:42;;;;;;;11.90;7.93;;;;;;;;;;5094222;28;20028;-71
2022/03/09 10:09:09;;;;;;;13.20;8.15;;;;;;;;;;5096071;28;20362;-71
2022/03/09 10:11:44;;;;;;;13.65;7.78;;;;;;;;;;5080141;28;20016;-71
2022/03/09 10:14:10;;;;;;;14.18;7.40;;;;;;;;;;5103085;28;20077;-72
2022/03/09 10:16:36;;;;;;;13.27;8.07;;;;;;;;;;5104727;28;20025;-71
2022/03/09 10:19:02;;;;;;;13.38;7.97;;;;;;;;;;5096906;28;20031;-71
2022/03/09 10:21:30;;;;;;;12.45;7.53;;;;;;;;;;5093476;28;20052;-71
2022/03/09 10:24:01;;;;;;;13.07;7.88;;;;;;;;;;5096557;28;20039;-73
2022/03/09 10:26:44;;;;;;;13.15;7.97;;;;;;;;;;5097417;28;20032;-71
2022/03/09 10:29:11;;;;;;;11.45;7.25;;;;;;;;;;5066591;28;20087;-72
2022/03/09 10:31:38;;;;;;;13.82;8.30;;;;;;;;;;5056481;28;20048;-72
2022/03/09 10:34:08;;;;;;;13.90;8.15;;;;;;;;;;5055714;28;20397;-73
2022/03/09 10:36:34;;;;;;;12.27;7.90;;;;;;;;;;5062955;28;20112;-73
2022/03/09 10:39:29;;;;;;;12.82;7.88;;;;;;;;;;5056124;28;20029;-73
2022/03/09 10:41:58;;;;;;;12.63;7.85;;;;;;;;;;5057675;28;20451;-72
2022/03/09 10:44:44;;;;;;;14.35;8.50;;;;;;;;;;5056600;28;20068;-72
2022/03/09 10:47:10;;;;;;;14.85;9.25;;;;;;;;;;5054481;28;20053;-73
2022/03/09 10:49:36;;;;;;;16.67;9.45;;;;;;;;;;5055296;28;20028;-72
2022/03/09 10:52:03;;;;;;;14.68;9.18;;;;;;;;;;5052906;28;20017;-72
2022/03/09 10:54:29;;;;;;;14.35;8.32;;;;;;;;;;5065987;28;20033;-73
2022/03/09 10:57:09;;;;;;;14.50;8.43;;;;;;;;;;5055081;28;20025;-73
2022/03/09 10:59:45;;;;;;;16.90;8.88;;;;;;;;;;5056375;28;20074;-73
2022/03/09 11:02:11;;;;;;;15.02;8.63;;;;;;;;;;5056260;28;20119;-75
2022/03/09 11:04:38;;;;;;;13.43;8.88;;;;;;;;;;5057139;28;20062;-74
2022/03/09 11:07:04;;;;;;;14.63;8.60;;;;;;;;;;5068212;28;20062;-72
2022/03/09 11:09:31;;;;;;;16.02;9.63;;;;;;;;;;5052064;28;20025;-72
2022/03/09 11:11:57;;;;;;;14.52;9.35;;;;;;;;;;5055516;28;20082;-69
2022/03/09 11:14:26;;;;;;;14.52;8.85;;;;;;;;;;5055238;28;20067;-70
2022/03/09 11:16:54;;;;;;;16.77;8.73;;;;;;;;;;5055854;28;20021;-72
2022/03/09 11:19:20;;;;;;;13.57;8.15;;;;;;;;;;5050939;28;20028;-73
2022/03/09 11:21:47;;;;;;;15.25;8.80;;;;;;;;;;5048793;28;20050;-71
2022/03/09 11:24:14;;;;;;;13.68;8.90;;;;;;;;;;5048673;28;20123;-71
2022/03/09 11:26:47;;;;;;;12.60;7.78;;;;;;;;;;5058752;28;20032;-71
2022/03/09 11:29:13;;;;;;;14.90;8.70;;;;;;;;;;5074094;28;20048;-72
2022/03/09 11:31:51;;;;;;;15.25;8.63;;;;;;;;;;5091759;28;20066;-75
2022/03/09 11:34:37;;;;;;;14.60;8.70;;;;;;;;;;5076521;28;20077;-76
2022/03/09 11:37:03;;;;;;;14.10;8.43;;;;;;;;;;5106673;28;20080;-76
2022/03/09 11:39:29;;;;;;;14.15;8.18;;;;;;;;;;5092413;28;20031;-75
2022/03/09 11:42:19;;;;;;;13.93;8.65;;;;;;;;;;5077302;28;20041;-76
2022/03/09 11:44:45;;;;;;;14.93;8.10;;;;;;;;;;5095786;28;20093;-75
2022/03/09 11:47:11;;;;;;;14.10;7.57;;;;;;;;;;5099193;28;20032;-74
2022/03/09 11:49:37;;;;;;;14.45;8.07;;;;;;;;;;5106630;28;20024;-75
2022/03/09 11:52:16;;;;;;;13.32;8.00;;;;;;;;;;5109407;28;20080;-74
2022/03/09 11:54:42;;;;;;;11.95;7.70;;;;;;;;;;5109396;28;20417;-74
2022/03/09 11:57:08;;;;;;;11.88;7.75;;;;;;;;;;5102610;28;20052;-75
2022/03/09 11:59:34;;;;;;;13.70;8.20;;;;;;;;;;5104823;28;20058;-75
2022/03/09 12:02:02;;;;;;;11.32;6.97;;;;;;;;;;5087131;28;20027;-75
2022/03/09 12:04:40;;;;;;;12.25;6.85;;;;;;;;;;5105668;28;20032;-76
2022/03/09 12:07:07;;;;;;;13.20;7.15;;;;;;;;;;5103635;28;20035;-75
2022/03/09 12:10:03;;;;;;;13.35;6.45;;;;;;;;;;5086884;28;20484;-74
2022/03/09 12:12:30;;;;;;;10.75;6.45;;;;;;;;;;5087456;28;20032;-74
2022/03/09 12:15:00;;;;;;;11.45;6.78;;;;;;;;;;5110633;28;20055;-75
2022/03/09 12:17:34;;;;;;;10.68;6.60;;;;;;;;;;5108404;28;20024;-74
2022/03/09 12:20:18;;;;;;;13.43;7.45;;;;;;;;;;5100748;28;20055;-75
2022/03/09 12:23:03;;;;;;;10.63;6.35;;;;;;;;;;5091239;28;20044;-65
2022/03/09 12:25:40;;;;;;;10.02;5.40;;;;;;;;;;5095366;28;20036;-70
2022/03/09 12:28:28;;;;;;;10.90;6.60;;;;;;;;;;5106719;28;20024;-68
2022/03/09 12:30:58;;;;;;;10.05;6.30;;;;;;;;;;5096451;28;20028;-66
2022/03/09 12:33:25;;;;;;;10.15;6.40;;;;;;;;;;5093986;28;20048;-67
2022/03/09 12:35:51;;;;;;;10.65;6.47;;;;;;;;;;5104043;28;20028;-66
2022/03/09 12:38:18;;;;;;;12.30;6.93;;;;;;;;;;5101396;28;20081;-68
2022/03/09 12:40:47;;;;;;;10.00;6.25;;;;;;;;;;5101422;28;20032;-66
2022/03/09 12:43:14;;;;;;;10.63;6.00;;;;;;;;;;5102428;27;20815;-66
2022/03/09 12:45:53;;;;;;;13.05;6.43;;;;;;;;;;5107865;28;20032;-68
2022/03/09 12:48:19;;;;;;;10.88;6.28;;;;;;;;;;5106159;28;20028;-73
2022/03/09 12:50:45;;;;;;;11.05;6.07;;;;;;;;;;5093806;28;20063;-68
2022/03/09 12:53:12;;;;;;;9.98;5.57;;;;;;;;;;5091232;28;20103;-65
2022/03/09 12:55:38;;;;;;;9.88;6.32;;;;;;;;;;5102172;28;20378;-68
2022/03/09 12:58:05;;;;;;;9.98;6.07;;;;;;;;;;5098025;27;20027;-68
2022/03/09 13:00:34;;;;;;;11.68;6.70;;;;;;;;;;5097870;28;20076;-67
2022/03/09 13:03:01;;;;;;;10.93;6.38;;;;;;;;;;5093713;28;20097;-67
2022/03/09 13:05:28;;;;;;;12.18;6.90;;;;;;;;;;5094132;28;20027;-68
2022/03/09 13:08:03;;;;;;;11.48;6.55;;;;;;;;;;5097130;28;20106;-65
2022/03/09 13:10:30;;;;;;;11.43;6.63;;;;;;;;;;5090645;28;20085;-72
2022/03/09 13:12:58;;;;;;;8.88;5.05;;;;;;;;;;5077903;28;20020;-74
2022/03/09 13:15:40;;;;;;;9.60;5.35;;;;;;;;;;5076333;28;20561;-71
2022/03/09 13:18:07;;;;;;;10.80;6.30;;;;;;;;;;5107104;28;20543;-72
2022/03/09 13:20:34;;;;;;;11.73;6.07;;;;;;;;;;5098171;28;20031;-72
2022/03/09 13:23:00;;;;;;;10.57;5.63;;;;;;;;;;5078811;28;20032;-74
2022/03/09 13:25:30;;;;;;;11.05;6.10;;;;;;;;;;5097349;28;20065;-72
2022/03/09 13:28:06;;;;;;;10.15;6.13;;;;;;;;;;5093705;28;20028;-72
2022/03/09 13:30:33;;;;;;;10.10;5.97;;;;;;;;;;5074793;28;20056;-71
2022/03/09 13:33:14;;;;;;;9.68;5.82;;;;;;;;;;5095792;28;20051;-72
2022/03/09 13:35:48;;;;;;;10.13;6.22;;;;;;;;;;5092680;28;20051;-72
2022/03/09 13:38:20;;;;;;;10.85;5.68;;;;;;;;;;5105920;28;20072;-74
2022/03/09 13:40:46;;;;;;;9.68;5.35;;;;;;;;;;5102750;28;20468;-74
2022/03/09 13:43:12;;;;;;;9.45;5.85;;;;;;;;;;5093108;28;20044;-74
2022/03/09 13:45:40;;;;;;;10.50;6.10;;;;;;;;;;5106430;28;20389;-70
2022/03/09 13:48:08;;;;;;;12.48;7.10;;;;;;;;;;5076607;28;20485;-71
2022/03/09 13:50:42;;;;;;;9.80;5.55;;;;;;;;;;5097304;28;20103;-67
2022/03/09 13:53:08;;;;;;;8.77;5.43;;;;;;;;;;5078360;28;20036;-70
2022/03/09 13:55:44;;;;;;;9.55;5.78;;;;;;;;;;5095372;28;20024;-69
2022/03/09 13:58:13;;;;;;;9.23;5.53;;;;;;;;;;5094144;28;20023;-69
2022/03/09 14:00:40;;;;;;;10.77;6.70;;;;;;;;;;5092391;28;20472;-69
2022/03/09 14:03:19;;;;;;;9.68;6.10;;;;;;;;;;5076337;28;20431;-69
2022/03/09 14:05:47;;;;;;;10.25;6.25;;;;;;;;;;5090318;28;20024;-69
2022/03/09 14:08:29;;;;;;;10.20;6.10;;;;;;;;;;5096712;28;20028;-69
2022/03/09 14:11:08;;;;;;;8.85;5.82;;;;;;;;;;5097467;28;20047;-69
2022/03/09 14:13:34;;;;;;;9.02;5.78;;;;;;;;;;5097751;28;20024;-69
2022/03/09 14:16:01;;;;;;;10.00;6.35;;;;;;;;;;5095936;28;20054;-70
2022/03/09 14:18:27;;;;;;;10.20;6.20;;;;;;;;;;5074023;28;20047;-69
2022/03/09 14:20:53;;;;;;;9.15;5.75;;;;;;;;;;5095078;28;20051;-69
2022/03/09 14:23:19;;;;;;;11.10;6.60;;;;;;;;;;5077367;28;20103;-69
2022/03/09 14:25:45;;;;;;;10.57;5.80;;;;;;;;;;5078063;28;20382;-69
2022/03/09 14:28:11;;;;;;;9.85;6.32;;;;;;;;;;5078173;28;20035;-68